Time;durP1;ratioP1;P1;durP2;ratioP2;P2;SDS_P1;SDS_P2;PMS_P1;PMS_P2;Temp;Humidity;BMP_temperature;BMP_pressure;BME280_temperature;BME280_humidity;BME280_pressure;Samples;Min_cycle;Max_cycle;Signal;HPM_P1;HPM_P2
2022/05/10 00:00:15;;;;;;;;;;;;;;;;;;1039548;28;4409;-49
2022/05/10 00:01:10;;;;;;;;;;;;;;;;;;1037254;28;4024;-47
2022/05/10 00:01:41;;;;;;;;;;;;;;;;;;1037979;28;2902;-49
2022/05/10 00:02:12;;;;;;;;;;;;;;;;;;1036362;28;3955;-48
2022/05/10 00:02:45;;;;;;;;;;;;;;;;;;1039517;28;3869;-51
2022/05/10 00:03:15;;;;;;;;;;;;;;;;;;1040091;28;4372;-46
2022/05/10 00:03:46;;;;;;;;;;;;;;;;;;1040057;28;4024;-48
2022/05/10 00:04:17;;;;;;;;;;;;;;;;;;1039942;28;4169;-48
2022/05/10 00:04:49;;;;;;;;;;;;;;;;;;1040969;28;3946;-49
2022/05/10 00:05:21;;;;;;;;;;;;;;;;;;1038871;28;3917;-48
2022/05/10 00:05:52;;;;;;;;;;;;;;;;;;1039920;28;4442;-49
2022/05/10 00:06:22;;;;;;;;;;;;;;;;;;1040770;28;2387;-51
2022/05/10 00:06:53;;;;;;;;;;;;;;;;;;1040656;28;3797;-49
2022/05/10 00:07:24;;;;;;;;;;;;;;;;;;1039265;28;3991;-48
2022/05/10 00:07:56;;;;;;;;;;;;;;;;;;1039814;28;4058;-49
2022/05/10 00:08:27;;;;;;;;;;;;;;;;;;1040432;28;3485;-49
2022/05/10 00:08:57;;;;;;;;;;;;;;;;;;1039052;28;4233;-45
2022/05/10 00:09:29;;;;;;;;;;;;;;;;;;1041118;28;3598;-47
2022/05/10 00:09:59;;;;;;;;;;;;;;;;;;1039732;28;3977;-45
2022/05/10 00:10:30;;;;;;;;;;;;;;;;;;1041386;28;3797;-49
2022/05/10 00:11:00;;;;;;;;;;;;;;;;;;1039006;28;3926;-47
2022/05/10 00:11:30;;;;;;;;;;;;;;;;;;1041461;28;2214;-49
2022/05/10 00:12:01;;;;;;;;;;;;;;;;;;1039486;28;3828;-48
2022/05/10 00:12:31;;;;;;;;;;;;;;;;;;1039364;28;3682;-50
2022/05/10 00:13:01;;;;;;;;;;;;;;;;;;1039061;28;3954;-47
2022/05/10 00:13:32;;;;;;;;;;;;;;;;;;1041309;28;1653;-49
2022/05/10 00:14:02;;;;;;;;;;;;;;;;;;1038694;28;3871;-48
2022/05/10 00:14:33;;;;;;;;;;;;;;;;;;1040763;28;3754;-50
2022/05/10 00:15:03;;;;;;;;;;;;;;;;;;1039283;28;4053;-49
2022/05/10 00:15:34;;;;;;;;;;;;;;;;;;1039655;28;3849;-48
2022/05/10 00:16:04;;;;;;;;;;;;;;;;;;1039208;28;4363;-48
2022/05/10 00:16:38;;;;;;;;;;;;;;;;;;1038973;28;3969;-48
2022/05/10 00:17:11;;;;;;;;;;;;;;;;;;1039869;28;4037;-48
2022/05/10 00:17:42;;;;;;;;;;;;;;;;;;1040406;28;2058;-49
2022/05/10 00:18:13;;;;;;;;;;;;;;;;;;1039560;28;4014;-51
2022/05/10 00:18:43;;;;;;;;;;;;;;;;;;1040754;28;3812;-49
2022/05/10 00:19:15;;;;;;;;;;;;;;;;;;1039337;28;4263;-50
2022/05/10 00:19:45;;;;;;;;;;;;;;;;;;1040691;28;3671;-48
2022/05/10 00:20:18;;;;;;;;;;;;;;;;;;1039110;28;4131;-49
2022/05/10 00:20:48;;;;;;;;;;;;;;;;;;1040407;28;3786;-46
2022/05/10 00:21:20;;;;;;;;;;;;;;;;;;1037072;28;3757;-46
2022/05/10 00:21:51;;;;;;;;;;;;;;;;;;1041096;28;3793;-48
2022/05/10 00:22:23;;;;;;;;;;;;;;;;;;1039077;28;3983;-50
2022/05/10 00:22:53;;;;;;;;;;;;;;;;;;1040905;28;3852;-48
2022/05/10 00:23:23;;;;;;;;;;;;;;;;;;1039220;28;3823;-51
2022/05/10 00:23:54;;;;;;;;;;;;;;;;;;1041141;28;4114;-47
2022/05/10 00:24:38;;;;;;;;;;;;;;;;;;1046567;28;3101;-50
2022/05/10 00:25:17;;;;;;;;;;;;;;;;;;1047620;28;3827;-47
2022/05/10 00:25:47;;;;;;;;;;;;;;;;;;1048448;28;3797;-48
2022/05/10 00:26:17;;;;;;;;;;;;;;;;;;1047670;28;4151;-52
2022/05/10 00:26:55;;;;;;;;;;;;;;;;;;1047603;28;3911;-51
2022/05/10 00:27:25;;;;;;;;;;;;;;;;;;1049131;28;2711;-49
2022/05/10 00:27:56;;;;;;;;;;;;;;;;;;1048137;28;3946;-49
2022/05/10 00:28:26;;;;;;;;;;;;;;;;;;1048165;28;2895;-47
2022/05/10 00:28:56;;;;;;;;;;;;;;;;;;1041055;28;3958;-49
2022/05/10 00:29:26;;;;;;;;;;;;;;;;;;1041170;28;3971;-47
2022/05/10 00:29:57;;;;;;;;;;;;;;;;;;1041547;28;3972;-47
2022/05/10 00:30:27;;;;;;;;;;;;;;;;;;1041336;28;2947;-50
2022/05/10 00:30:57;;;;;;;;;;;;;;;;;;1048698;28;4007;-49
2022/05/10 00:31:28;;;;;;;;;;;;;;;;;;1046199;28;2975;-49
2022/05/10 00:31:58;;;;;;;;;;;;;;;;;;1047659;28;3890;-48
2022/05/10 00:32:31;;;;;;;;;;;;;;;;;;1048957;28;3677;-48
2022/05/10 00:33:02;;;;;;;;;;;;;;;;;;1049538;28;3892;-46
2022/05/10 00:33:32;;;;;;;;;;;;;;;;;;1048227;28;3669;-48
2022/05/10 00:34:03;;;;;;;;;;;;;;;;;;1047860;28;4079;-48
2022/05/10 00:34:35;;;;;;;;;;;;;;;;;;1048048;28;4025;-49
2022/05/10 00:35:06;;;;;;;;;;;;;;;;;;1048596;28;4436;-47
2022/05/10 00:35:37;;;;;;;;;;;;;;;;;;1047238;28;3900;-50
2022/05/10 00:36:09;;;;;;;;;;;;;;;;;;1048431;28;4283;-50
2022/05/10 00:36:40;;;;;;;;;;;;;;;;;;1047345;28;3798;-48
2022/05/10 00:37:11;;;;;;;;;;;;;;;;;;1047390;28;3965;-47
2022/05/10 00:37:45;;;;;;;;;;;;;;;;;;1047981;28;3911;-48
2022/05/10 00:38:15;;;;;;;;;;;;;;;;;;1048105;28;4014;-47
2022/05/10 00:38:45;;;;;;;;;;;;;;;;;;1047440;28;3898;-49
2022/05/10 00:39:16;;;;;;;;;;;;;;;;;;1048370;28;4171;-49
2022/05/10 00:39:46;;;;;;;;;;;;;;;;;;1047858;28;3838;-49
2022/05/10 00:40:18;;;;;;;;;;;;;;;;;;1049336;28;1393;-48
2022/05/10 00:40:48;;;;;;;;;;;;;;;;;;1048107;28;4982;-48
2022/05/10 00:41:32;;;;;;;;;;;;;;;;;;1043533;28;3598;-46
2022/05/10 00:42:05;;;;;;;;;;;;;;;;;;1045084;28;3905;-51
2022/05/10 00:42:50;;;;;;;;;;;;;;;;;;1044225;28;2903;-47
2022/05/10 00:43:27;;;;;;;;;;;;;;;;;;1046761;28;3755;-49
2022/05/10 00:44:01;;;;;;;;;;;;;;;;;;1048215;28;4272;-47
2022/05/10 00:44:38;;;;;;;;;;;;;;;;;;1047927;28;3818;-50
2022/05/10 00:45:14;;;;;;;;;;;;;;;;;;1049496;28;3939;-50
2022/05/10 00:45:44;;;;;;;;;;;;;;;;;;1049001;28;2237;-47
2022/05/10 00:46:17;;;;;;;;;;;;;;;;;;1048624;28;4384;-48
2022/05/10 00:46:59;;;;;;;;;;;;;;;;;;1047922;28;3873;-47
2022/05/10 00:47:32;;;;;;;;;;;;;;;;;;1048102;28;2457;-51
2022/05/10 00:48:06;;;;;;;;;;;;;;;;;;1049032;28;4485;-47
2022/05/10 00:48:43;;;;;;;;;;;;;;;;;;1048308;28;2456;-48
2022/05/10 00:49:13;;;;;;;;;;;;;;;;;;1045115;28;4222;-46
2022/05/10 00:49:47;;;;;;;;;;;;;;;;;;1048630;28;1718;-48
2022/05/10 00:50:22;;;;;;;;;;;;;;;;;;1049306;28;3914;-50
2022/05/10 00:50:55;;;;;;;;;;;;;;;;;;1047297;28;4462;-47
2022/05/10 00:51:46;;;;;;;;;;;;;;;;;;1048453;28;3393;-50
2022/05/10 00:52:37;;;;;;;;;;;;;;;;;;1041839;28;3712;-50
2022/05/10 00:53:07;;;;;;;;;;;;;;;;;;1041954;28;3808;-48
2022/05/10 00:53:40;;;;;;;;;;;;;;;;;;1041053;28;3699;-48
2022/05/10 00:54:10;;;;;;;;;;;;;;;;;;1042588;28;4526;-49
2022/05/10 00:54:52;;;;;;;;;;;;;;;;;;1043546;28;3878;-47
2022/05/10 00:55:28;;;;;;;;;;;;;;;;;;1044519;28;3748;-46
2022/05/10 00:56:06;;;;;;;;;;;;;;;;;;1045408;28;4111;-49
2022/05/10 00:56:36;;;;;;;;;;;;;;;;;;1043948;28;1966;-46
2022/05/10 00:57:12;;;;;;;;;;;;;;;;;;1044527;28;3895;-52
2022/05/10 00:57:46;;;;;;;;;;;;;;;;;;1042631;28;3603;-52
2022/05/10 00:58:35;;;;;;;;;;;;;;;;;;1045636;28;4101;-49
2022/05/10 00:59:18;;;;;;;;;;;;;;;;;;1048175;28;4060;-48
2022/05/10 01:00:06;;;;;;;;;;;;;;;;;;1042319;28;4206;-48
2022/05/10 01:00:37;;;;;;;;;;;;;;;;;;1038761;28;1704;-47
2022/05/10 01:01:08;;;;;;;;;;;;;;;;;;1036989;28;4025;-46
2022/05/10 01:01:40;;;;;;;;;;;;;;;;;;1040606;28;2900;-48
2022/05/10 01:02:22;;;;;;;;;;;;;;;;;;1040673;28;4357;-49
2022/05/10 01:02:53;;;;;;;;;;;;;;;;;;1043816;28;4243;-49
2022/05/10 01:03:38;;;;;;;;;;;;;;;;;;1047081;28;2069;-45
2022/05/10 01:04:36;;;;;;;;;;;;;;;;;;1046715;28;3805;-53
2022/05/10 01:05:30;;;;;;;;;;;;;;;;;;1047847;28;4097;-48
2022/05/10 01:06:05;;;;;;;;;;;;;;;;;;1035923;28;3955;-46
2022/05/10 01:06:39;;;;;;;;;;;;;;;;;;1044487;28;3619;-48
2022/05/10 01:07:18;;;;;;;;;;;;;;;;;;1043718;28;3978;-47
2022/05/10 01:07:58;;;;;;;;;;;;;;;;;;1041381;28;4154;-49
2022/05/10 01:08:31;;;;;;;;;;;;;;;;;;1044435;28;2791;-48
2022/05/10 01:09:04;;;;;;;;;;;;;;;;;;1041855;28;4452;-49
2022/05/10 01:09:44;;;;;;;;;;;;;;;;;;1046400;28;3750;-48
2022/05/10 01:10:21;;;;;;;;;;;;;;;;;;1046228;28;3850;-50
2022/05/10 01:10:55;;;;;;;;;;;;;;;;;;1048500;28;3810;-47
2022/05/10 01:11:28;;;;;;;;;;;;;;;;;;1048416;28;2184;-50
2022/05/10 01:12:04;;;;;;;;;;;;;;;;;;1047032;28;4309;-50
2022/05/10 01:12:38;;;;;;;;;;;;;;;;;;1049444;28;1814;-47
2022/05/10 01:13:18;;;;;;;;;;;;;;;;;;1048347;28;4040;-48
2022/05/10 01:14:01;;;;;;;;;;;;;;;;;;1048380;28;4208;-47
2022/05/10 01:14:35;;;;;;;;;;;;;;;;;;1046810;28;3711;-49
2022/05/10 01:15:07;;;;;;;;;;;;;;;;;;1042953;28;4182;-48
2022/05/10 01:15:38;;;;;;;;;;;;;;;;;;1044542;28;1854;-51
2022/05/10 01:16:13;;;;;;;;;;;;;;;;;;1044321;28;4089;-49
2022/05/10 01:16:43;;;;;;;;;;;;;;;;;;1044874;28;2384;-51
2022/05/10 01:17:14;;;;;;;;;;;;;;;;;;1047653;28;4019;-45
2022/05/10 01:17:46;;;;;;;;;;;;;;;;;;1047693;28;3880;-48
2022/05/10 01:18:16;;;;;;;;;;;;;;;;;;1047405;28;3893;-51
2022/05/10 01:18:47;;;;;;;;;;;;;;;;;;1048341;28;4440;-48
2022/05/10 01:19:18;;;;;;;;;;;;;;;;;;1047842;28;4043;-48
2022/05/10 01:19:48;;;;;;;;;;;;;;;;;;1047826;28;4094;-47
2022/05/10 01:20:21;;;;;;;;;;;;;;;;;;1048683;28;3546;-49
2022/05/10 01:20:54;;;;;;;;;;;;;;;;;;1048944;28;3928;-52
2022/05/10 01:21:44;;;;;;;;;;;;;;;;;;1046126;28;3847;-48
2022/05/10 01:22:23;;;;;;;;;;;;;;;;;;1043251;28;3791;-49
2022/05/10 01:23:00;;;;;;;;;;;;;;;;;;1041952;28;4175;-49
2022/05/10 01:23:41;;;;;;;;;;;;;;;;;;1040563;28;3021;-48
2022/05/10 01:24:43;;;;;;;;;;;;;;;;;;1043873;28;3933;-48
2022/05/10 01:25:31;;;;;;;;;;;;;;;;;;1041693;28;3976;-46
2022/05/10 01:26:13;;;;;;;;;;;;;;;;;;1042432;28;3808;-47
2022/05/10 01:27:06;;;;;;;;;;;;;;;;;;1042368;28;2010;-47
2022/05/10 01:27:39;;;;;;;;;;;;;;;;;;1039389;28;3990;-50
2022/05/10 01:28:30;;;;;;;;;;;;;;;;;;1042562;28;3765;-50
2022/05/10 01:29:02;;;;;;;;;;;;;;;;;;1040632;28;4407;-47
2022/05/10 01:29:35;;;;;;;;;;;;;;;;;;1040655;28;3897;-49
2022/05/10 01:30:25;;;;;;;;;;;;;;;;;;1041973;28;3958;-47
2022/05/10 01:30:57;;;;;;;;;;;;;;;;;;1043692;28;3955;-47
2022/05/10 01:31:30;;;;;;;;;;;;;;;;;;1041667;28;3616;-48
2022/05/10 01:33:54;;;;;;;;;;;;;;;;;;1040653;28;4280;-46
2022/05/10 01:34:25;;;;;;;;;;;;;;;;;;1039940;28;3396;-50
2022/05/10 01:34:57;;;;;;;;;;;;;;;;;;1040400;28;3987;-49
2022/05/10 01:35:29;;;;;;;;;;;;;;;;;;1039773;28;4136;-46
2022/05/10 01:36:03;;;;;;;;;;;;;;;;;;1038026;28;5219;-46
2022/05/10 01:36:42;;;;;;;;;;;;;;;;;;1041494;28;4047;-48
2022/05/10 01:37:15;;;;;;;;;;;;;;;;;;1045923;28;3841;-48
2022/05/10 01:37:47;;;;;;;;;;;;;;;;;;1045494;28;3676;-49
2022/05/10 01:38:32;;;;;;;;;;;;;;;;;;1045818;28;3704;-48
2022/05/10 01:39:13;;;;;;;;;;;;;;;;;;1041802;28;4203;-51
2022/05/10 01:39:46;;;;;;;;;;;;;;;;;;1042172;28;3592;-50
2022/05/10 01:40:37;;;;;;;;;;;;;;;;;;1042129;28;3668;-46
2022/05/10 01:41:26;;;;;;;;;;;;;;;;;;1041301;28;3849;-49
2022/05/10 01:42:05;;;;;;;;;;;;;;;;;;1040826;28;3838;-50
2022/05/10 01:42:42;;;;;;;;;;;;;;;;;;1042832;28;4116;-50
2022/05/10 01:43:19;;;;;;;;;;;;;;;;;;1041646;28;3820;-46
2022/05/10 01:43:54;;;;;;;;;;;;;;;;;;1042113;28;3886;-50
2022/05/10 01:44:34;;;;;;;;;;;;;;;;;;1043007;28;2698;-47
2022/05/10 01:45:12;;;;;;;;;;;;;;;;;;1040743;28;3866;-47
2022/05/10 01:45:48;;;;;;;;;;;;;;;;;;1040846;28;3811;-51
2022/05/10 01:46:25;;;;;;;;;;;;;;;;;;1041259;28;4699;-45
2022/05/10 01:47:02;;;;;;;;;;;;;;;;;;1040560;28;4145;-47
2022/05/10 01:47:36;;;;;;;;;;;;;;;;;;1042129;28;3903;-48
2022/05/10 01:48:08;;;;;;;;;;;;;;;;;;1041399;28;4224;-48
2022/05/10 01:48:40;;;;;;;;;;;;;;;;;;1040396;28;4288;-48
2022/05/10 01:49:14;;;;;;;;;;;;;;;;;;1041394;28;4174;-48
2022/05/10 01:50:04;;;;;;;;;;;;;;;;;;1039329;28;3775;-50
2022/05/10 01:50:39;;;;;;;;;;;;;;;;;;1023828;28;3956;-49
2022/05/10 01:51:15;;;;;;;;;;;;;;;;;;1040246;28;6162;-50
2022/05/10 01:51:49;;;;;;;;;;;;;;;;;;1041782;28;2858;-44
2022/05/10 01:52:29;;;;;;;;;;;;;;;;;;1044557;28;3686;-48
2022/05/10 01:53:04;;;;;;;;;;;;;;;;;;1042952;28;3888;-47
2022/05/10 01:53:36;;;;;;;;;;;;;;;;;;1044352;28;3897;-47
2022/05/10 01:54:15;;;;;;;;;;;;;;;;;;1043501;28;4064;-48
2022/05/10 01:55:10;;;;;;;;;;;;;;;;;;1040124;28;3874;-49
2022/05/10 01:55:44;;;;;;;;;;;;;;;;;;1041426;28;2988;-47
2022/05/10 01:56:14;;;;;;;;;;;;;;;;;;1041046;28;4073;-50
2022/05/10 01:56:44;;;;;;;;;;;;;;;;;;1041603;28;3774;-47
2022/05/10 01:57:16;;;;;;;;;;;;;;;;;;1039868;28;3864;-51
2022/05/10 01:57:46;;;;;;;;;;;;;;;;;;1039282;28;3802;-48
2022/05/10 01:58:18;;;;;;;;;;;;;;;;;;1043155;28;3800;-49
2022/05/10 01:58:49;;;;;;;;;;;;;;;;;;1039851;28;3956;-46
2022/05/10 01:59:20;;;;;;;;;;;;;;;;;;1042350;28;3191;-51
2022/05/10 01:59:57;;;;;;;;;;;;;;;;;;1040198;28;3840;-48
2022/05/10 02:00:28;;;;;;;;;;;;;;;;;;1042630;28;1164;-49
2022/05/10 02:00:59;;;;;;;;;;;;;;;;;;1041661;28;3886;-48
2022/05/10 02:01:32;;;;;;;;;;;;;;;;;;1041270;28;3253;-46
2022/05/10 02:02:03;;;;;;;;;;;;;;;;;;1040739;28;3854;-48
2022/05/10 02:02:35;;;;;;;;;;;;;;;;;;1043894;28;1725;-47
2022/05/10 02:03:05;;;;;;;;;;;;;;;;;;1040185;28;4082;-51
2022/05/10 02:03:39;;;;;;;;;;;;;;;;;;1039099;28;3508;-46
2022/05/10 02:04:12;;;;;;;;;;;;;;;;;;1040513;28;5667;-47
2022/05/10 02:04:45;;;;;;;;;;;;;;;;;;1042063;28;2152;-49
2022/05/10 02:05:19;;;;;;;;;;;;;;;;;;1039754;28;4218;-49
2022/05/10 02:05:49;;;;;;;;;;;;;;;;;;1040615;28;4193;-47
2022/05/10 02:06:40;;;;;;;;;;;;;;;;;;1043145;28;1708;-50
2022/05/10 02:07:16;;;;;;;;;;;;;;;;;;1041477;28;3914;-48
2022/05/10 02:07:49;;;;;;;;;;;;;;;;;;1040273;28;3821;-51
2022/05/10 02:08:39;;;;;;;;;;;;;;;;;;1041689;28;3853;-50
2022/05/10 02:09:15;;;;;;;;;;;;;;;;;;1040383;28;3903;-50
2022/05/10 02:09:51;;;;;;;;;;;;;;;;;;1041303;28;3875;-48
2022/05/10 02:10:24;;;;;;;;;;;;;;;;;;1041342;28;3819;-47
2022/05/10 02:10:59;;;;;;;;;;;;;;;;;;1041752;28;4217;-48
2022/05/10 02:11:31;;;;;;;;;;;;;;;;;;1040272;28;3622;-48
2022/05/10 02:12:01;;;;;;;;;;;;;;;;;;1037728;28;4003;-51
2022/05/10 02:12:38;;;;;;;;;;;;;;;;;;1041021;28;2439;-47
2022/05/10 02:13:16;;;;;;;;;;;;;;;;;;1040705;28;5399;-49
2022/05/10 02:13:52;;;;;;;;;;;;;;;;;;1042079;28;3913;-48
2022/05/10 02:14:29;;;;;;;;;;;;;;;;;;1042770;28;3061;-48
2022/05/10 02:15:10;;;;;;;;;;;;;;;;;;1040042;28;4145;-47
2022/05/10 02:15:52;;;;;;;;;;;;;;;;;;1042512;28;1704;-47
2022/05/10 02:16:24;;;;;;;;;;;;;;;;;;1041350;28;4006;-50
2022/05/10 02:16:54;;;;;;;;;;;;;;;;;;1041395;28;4009;-48
2022/05/10 02:17:28;;;;;;;;;;;;;;;;;;1041281;28;3822;-46
2022/05/10 02:18:05;;;;;;;;;;;;;;;;;;1040644;28;3854;-51
2022/05/10 02:18:41;;;;;;;;;;;;;;;;;;1040933;28;4077;-49
2022/05/10 02:19:15;;;;;;;;;;;;;;;;;;1040027;28;4213;-47
2022/05/10 02:19:49;;;;;;;;;;;;;;;;;;1040510;28;3948;-50
2022/05/10 02:20:19;;;;;;;;;;;;;;;;;;1038718;28;3901;-47
2022/05/10 02:20:52;;;;;;;;;;;;;;;;;;1040745;28;3818;-50
2022/05/10 02:21:39;;;;;;;;;;;;;;;;;;1032688;28;3809;-46
2022/05/10 02:22:13;;;;;;;;;;;;;;;;;;1032509;28;4138;-51
2022/05/10 02:22:53;;;;;;;;;;;;;;;;;;1033470;28;1710;-47
2022/05/10 02:23:42;;;;;;;;;;;;;;;;;;1041222;28;3848;-47
2022/05/10 02:24:30;;;;;;;;;;;;;;;;;;1038505;28;4230;-46
2022/05/10 02:25:07;;;;;;;;;;;;;;;;;;1047876;28;4230;-50
2022/05/10 02:25:38;;;;;;;;;;;;;;;;;;1047941;28;3890;-48
2022/05/10 02:26:11;;;;;;;;;;;;;;;;;;1047166;28;4334;-45
2022/05/10 02:26:48;;;;;;;;;;;;;;;;;;1049017;28;1676;-49
2022/05/10 02:27:24;;;;;;;;;;;;;;;;;;1047031;28;3680;-46
2022/05/10 02:27:57;;;;;;;;;;;;;;;;;;1047258;28;4484;-46
2022/05/10 02:28:36;;;;;;;;;;;;;;;;;;1048601;28;4018;-52
2022/05/10 02:29:06;;;;;;;;;;;;;;;;;;1048230;28;4133;-50
2022/05/10 02:29:48;;;;;;;;;;;;;;;;;;1043121;28;3864;-46
2022/05/10 02:30:20;;;;;;;;;;;;;;;;;;1043256;28;4162;-49
2022/05/10 02:30:52;;;;;;;;;;;;;;;;;;1045229;28;4523;-45
2022/05/10 02:31:24;;;;;;;;;;;;;;;;;;1047292;28;3415;-47
2022/05/10 02:33:06;;;;;;;;;;;;;;;;;;1048180;28;4053;-47
2022/05/10 02:33:38;;;;;;;;;;;;;;;;;;1048303;28;3750;-49
2022/05/10 02:34:08;;;;;;;;;;;;;;;;;;1048388;28;3927;-51
2022/05/10 02:34:42;;;;;;;;;;;;;;;;;;1048139;28;3454;-46
2022/05/10 02:35:13;;;;;;;;;;;;;;;;;;1048102;28;3865;-47
2022/05/10 02:35:46;;;;;;;;;;;;;;;;;;1048515;28;4173;-49
2022/05/10 02:36:16;;;;;;;;;;;;;;;;;;1048929;28;4022;-48
2022/05/10 02:36:47;;;;;;;;;;;;;;;;;;1048916;28;4020;-52
2022/05/10 02:37:17;;;;;;;;;;;;;;;;;;1049019;28;3020;-49
2022/05/10 02:37:47;;;;;;;;;;;;;;;;;;1047490;28;4137;-49
2022/05/10 02:38:19;;;;;;;;;;;;;;;;;;1050148;28;2251;-47
2022/05/10 02:38:49;;;;;;;;;;;;;;;;;;1049417;28;4054;-48
2022/05/10 02:39:26;;;;;;;;;;;;;;;;;;1047954;28;3528;-49
2022/05/10 02:39:56;;;;;;;;;;;;;;;;;;1049556;28;4167;-50
2022/05/10 02:40:27;;;;;;;;;;;;;;;;;;1047747;28;3672;-49
2022/05/10 02:40:58;;;;;;;;;;;;;;;;;;1049185;28;3932;-51
2022/05/10 02:41:29;;;;;;;;;;;;;;;;;;1049545;28;4001;-45
2022/05/10 02:42:00;;;;;;;;;;;;;;;;;;1044296;28;3915;-50
2022/05/10 02:42:31;;;;;;;;;;;;;;;;;;1042793;28;3956;-47
2022/05/10 02:43:01;;;;;;;;;;;;;;;;;;1045196;28;3961;-50
2022/05/10 02:43:32;;;;;;;;;;;;;;;;;;1044269;28;3944;-51
2022/05/10 02:44:03;;;;;;;;;;;;;;;;;;1047776;28;4301;-48
2022/05/10 02:44:34;;;;;;;;;;;;;;;;;;1048425;28;3205;-49
2022/05/10 02:45:05;;;;;;;;;;;;;;;;;;1047650;28;5872;-53
2022/05/10 02:45:37;;;;;;;;;;;;;;;;;;1047809;28;3484;-47
2022/05/10 02:46:07;;;;;;;;;;;;;;;;;;1048696;28;3881;-46
2022/05/10 02:46:37;;;;;;;;;;;;;;;;;;1048498;28;4040;-47
2022/05/10 02:47:08;;;;;;;;;;;;;;;;;;1048506;28;3880;-46
2022/05/10 02:47:40;;;;;;;;;;;;;;;;;;1047143;28;2718;-47
2022/05/10 02:48:33;;;;;;;;;;;;;;;;;;1048884;28;3801;-46
2022/05/10 02:49:04;;;;;;;;;;;;;;;;;;1036154;28;4020;-50
2022/05/10 02:49:35;;;;;;;;;;;;;;;;;;1044281;28;3971;-51
2022/05/10 02:50:13;;;;;;;;;;;;;;;;;;1045347;28;3907;-47
2022/05/10 02:50:43;;;;;;;;;;;;;;;;;;1044808;28;3552;-50
2022/05/10 02:51:14;;;;;;;;;;;;;;;;;;1048781;28;3793;-48
2022/05/10 02:51:44;;;;;;;;;;;;;;;;;;1048910;28;2390;-49
2022/05/10 02:52:14;;;;;;;;;;;;;;;;;;1049271;28;4235;-50
2022/05/10 02:52:44;;;;;;;;;;;;;;;;;;1048272;28;3878;-45
2022/05/10 02:53:15;;;;;;;;;;;;;;;;;;1049284;28;3743;-48
2022/05/10 02:53:45;;;;;;;;;;;;;;;;;;1048851;28;2565;-46
2022/05/10 02:54:15;;;;;;;;;;;;;;;;;;1048740;28;3721;-49
2022/05/10 02:54:46;;;;;;;;;;;;;;;;;;1049464;28;2676;-48
2022/05/10 02:55:23;;;;;;;;;;;;;;;;;;1045292;28;6261;-48
2022/05/10 02:55:56;;;;;;;;;;;;;;;;;;1043632;28;4105;-46
2022/05/10 02:56:27;;;;;;;;;;;;;;;;;;1045794;28;2371;-48
2022/05/10 02:56:59;;;;;;;;;;;;;;;;;;1043322;28;3932;-49
2022/05/10 02:57:29;;;;;;;;;;;;;;;;;;1046016;28;1768;-47
2022/05/10 02:58:02;;;;;;;;;;;;;;;;;;1043055;28;4036;-47
2022/05/10 02:58:40;;;;;;;;;;;;;;;;;;1046383;28;2792;-49
2022/05/10 02:59:15;;;;;;;;;;;;;;;;;;1044274;28;3917;-50
2022/05/10 02:59:45;;;;;;;;;;;;;;;;;;1044602;28;4129;-46
2022/05/10 03:00:16;;;;;;;;;;;;;;;;;;1044204;28;4317;-47
2022/05/10 03:00:47;;;;;;;;;;;;;;;;;;1039988;28;4251;-50
2022/05/10 03:01:35;;;;;;;;;;;;;;;;;;1041994;28;2837;-45
2022/05/10 03:02:15;;;;;;;;;;;;;;;;;;1041267;28;4370;-47
2022/05/10 03:02:46;;;;;;;;;;;;;;;;;;1047737;28;4169;-49
2022/05/10 03:03:20;;;;;;;;;;;;;;;;;;1044146;28;5169;-46
2022/05/10 03:03:50;;;;;;;;;;;;;;;;;;1043691;28;4312;-46
2022/05/10 03:04:21;;;;;;;;;;;;;;;;;;1045770;28;2745;-47
2022/05/10 03:04:58;;;;;;;;;;;;;;;;;;1044781;28;4230;-47
2022/05/10 03:05:28;;;;;;;;;;;;;;;;;;1049182;28;2897;-50
2022/05/10 03:05:59;;;;;;;;;;;;;;;;;;1046611;28;3935;-48
2022/05/10 03:06:29;;;;;;;;;;;;;;;;;;1049098;28;2829;-45
2022/05/10 03:06:59;;;;;;;;;;;;;;;;;;1049472;28;3789;-47
2022/05/10 03:07:30;;;;;;;;;;;;;;;;;;1049590;28;2292;-46
2022/05/10 03:08:00;;;;;;;;;;;;;;;;;;1043189;28;3823;-48
2022/05/10 03:08:31;;;;;;;;;;;;;;;;;;1045098;28;2559;-50
2022/05/10 03:09:01;;;;;;;;;;;;;;;;;;1043418;28;3912;-51
2022/05/10 03:09:32;;;;;;;;;;;;;;;;;;1045326;28;3068;-53
2022/05/10 03:10:02;;;;;;;;;;;;;;;;;;1047890;28;3926;-50
2022/05/10 03:10:32;;;;;;;;;;;;;;;;;;1050186;28;1803;-49
2022/05/10 03:11:03;;;;;;;;;;;;;;;;;;1048016;28;3885;-47
2022/05/10 03:11:35;;;;;;;;;;;;;;;;;;1050460;28;1703;-50
2022/05/10 03:12:05;;;;;;;;;;;;;;;;;;1047922;28;3831;-48
2022/05/10 03:12:36;;;;;;;;;;;;;;;;;;1049783;28;2134;-47
2022/05/10 03:13:06;;;;;;;;;;;;;;;;;;1047071;28;4007;-49
2022/05/10 03:13:37;;;;;;;;;;;;;;;;;;1049706;28;3036;-49
2022/05/10 03:14:08;;;;;;;;;;;;;;;;;;1045656;28;4156;-50
2022/05/10 03:14:38;;;;;;;;;;;;;;;;;;1048559;28;3529;-53
2022/05/10 03:15:09;;;;;;;;;;;;;;;;;;1048401;28;3789;-47
2022/05/10 03:15:39;;;;;;;;;;;;;;;;;;1048244;28;3655;-50
2022/05/10 03:16:10;;;;;;;;;;;;;;;;;;1047280;28;4222;-48
2022/05/10 03:16:40;;;;;;;;;;;;;;;;;;1049977;28;1619;-47
2022/05/10 03:17:12;;;;;;;;;;;;;;;;;;1048857;28;4400;-47
2022/05/10 03:17:42;;;;;;;;;;;;;;;;;;1048872;28;3505;-49
2022/05/10 03:18:12;;;;;;;;;;;;;;;;;;1048207;28;4019;-48
2022/05/10 03:18:43;;;;;;;;;;;;;;;;;;1047759;28;3810;-48
2022/05/10 03:19:16;;;;;;;;;;;;;;;;;;1043772;28;3850;-48
2022/05/10 03:19:46;;;;;;;;;;;;;;;;;;1044824;28;3858;-49
2022/05/10 03:20:17;;;;;;;;;;;;;;;;;;1044344;28;3524;-48
2022/05/10 03:20:47;;;;;;;;;;;;;;;;;;1044651;28;3932;-50
2022/05/10 03:21:18;;;;;;;;;;;;;;;;;;1048124;28;3891;-48
2022/05/10 03:21:48;;;;;;;;;;;;;;;;;;1050207;28;3901;-49
2022/05/10 03:22:19;;;;;;;;;;;;;;;;;;1049006;28;2986;-49
2022/05/10 03:22:49;;;;;;;;;;;;;;;;;;1044389;28;3868;-47
2022/05/10 03:23:19;;;;;;;;;;;;;;;;;;1044847;28;3575;-49
2022/05/10 03:23:50;;;;;;;;;;;;;;;;;;1044638;28;4371;-46
2022/05/10 03:24:34;;;;;;;;;;;;;;;;;;1044321;28;4006;-48
2022/05/10 03:25:11;;;;;;;;;;;;;;;;;;1043489;28;3860;-48
2022/05/10 03:25:41;;;;;;;;;;;;;;;;;;1044214;28;3748;-48
2022/05/10 03:26:13;;;;;;;;;;;;;;;;;;1045645;28;4315;-49
2022/05/10 03:26:45;;;;;;;;;;;;;;;;;;1045334;28;1868;-48
2022/05/10 03:27:16;;;;;;;;;;;;;;;;;;1044034;28;3842;-49
2022/05/10 03:27:47;;;;;;;;;;;;;;;;;;1043810;28;4152;-47
2022/05/10 03:28:17;;;;;;;;;;;;;;;;;;1044212;28;3203;-50
2022/05/10 03:28:48;;;;;;;;;;;;;;;;;;1044517;28;3910;-46
2022/05/10 03:29:19;;;;;;;;;;;;;;;;;;1044000;28;3184;-49
2022/05/10 03:29:49;;;;;;;;;;;;;;;;;;1045686;28;4287;-47
2022/05/10 03:30:19;;;;;;;;;;;;;;;;;;1043903;28;4015;-50
2022/05/10 03:30:50;;;;;;;;;;;;;;;;;;1044997;28;4161;-48
2022/05/10 03:31:22;;;;;;;;;;;;;;;;;;1043887;28;3219;-49
2022/05/10 03:31:52;;;;;;;;;;;;;;;;;;1044570;28;4246;-50
2022/05/10 03:32:23;;;;;;;;;;;;;;;;;;1044275;28;3122;-48
2022/05/10 03:32:53;;;;;;;;;;;;;;;;;;1044408;28;3892;-48
2022/05/10 03:33:23;;;;;;;;;;;;;;;;;;1044633;28;3701;-49
2022/05/10 03:34:57;;;;;;;;;;;;;;;;;;1045171;28;3367;-46
2022/05/10 03:35:28;;;;;;;;;;;;;;;;;;1045616;28;3983;-51
2022/05/10 03:36:06;;;;;;;;;;;;;;;;;;1044318;28;3816;-50
2022/05/10 03:36:38;;;;;;;;;;;;;;;;;;1044507;28;3976;-48
2022/05/10 03:37:09;;;;;;;;;;;;;;;;;;1045498;28;3864;-48
2022/05/10 03:37:39;;;;;;;;;;;;;;;;;;1044899;28;3190;-47
2022/05/10 03:38:09;;;;;;;;;;;;;;;;;;1045351;28;3991;-52
2022/05/10 03:38:39;;;;;;;;;;;;;;;;;;1044847;28;2919;-48
2022/05/10 03:39:10;;;;;;;;;;;;;;;;;;1043785;28;3930;-46
2022/05/10 03:39:40;;;;;;;;;;;;;;;;;;1043038;28;6960;-47
2022/05/10 03:40:11;;;;;;;;;;;;;;;;;;1045612;28;3848;-45
2022/05/10 03:40:41;;;;;;;;;;;;;;;;;;1043671;28;4035;-47
2022/05/10 03:41:11;;;;;;;;;;;;;;;;;;1039637;28;3828;-51
2022/05/10 03:41:42;;;;;;;;;;;;;;;;;;1040908;28;3710;-45
2022/05/10 03:42:12;;;;;;;;;;;;;;;;;;1041019;28;4216;-48
2022/05/10 03:42:43;;;;;;;;;;;;;;;;;;1039810;28;2874;-52
2022/05/10 03:43:14;;;;;;;;;;;;;;;;;;1045673;28;3988;-46
2022/05/10 03:43:44;;;;;;;;;;;;;;;;;;1044354;28;3931;-48
2022/05/10 03:44:14;;;;;;;;;;;;;;;;;;1042776;28;3829;-46
2022/05/10 03:44:47;;;;;;;;;;;;;;;;;;1039928;28;3783;-47
2022/05/10 03:45:19;;;;;;;;;;;;;;;;;;1040346;28;3817;-52
2022/05/10 03:45:49;;;;;;;;;;;;;;;;;;1040038;28;4246;-49
2022/05/10 03:46:19;;;;;;;;;;;;;;;;;;1043323;28;3883;-48
2022/05/10 03:46:50;;;;;;;;;;;;;;;;;;1042372;28;3988;-49
2022/05/10 03:47:22;;;;;;;;;;;;;;;;;;1045912;28;1633;-49
2022/05/10 03:47:52;;;;;;;;;;;;;;;;;;1047467;28;4418;-47
2022/05/10 03:48:22;;;;;;;;;;;;;;;;;;1048773;28;2073;-49
2022/05/10 03:48:53;;;;;;;;;;;;;;;;;;1047606;28;4252;-50
2022/05/10 03:49:24;;;;;;;;;;;;;;;;;;1049076;28;3675;-47
2022/05/10 03:49:55;;;;;;;;;;;;;;;;;;1043214;28;3926;-45
2022/05/10 03:50:25;;;;;;;;;;;;;;;;;;1045558;28;3948;-48
2022/05/10 03:50:55;;;;;;;;;;;;;;;;;;1044399;28;4437;-51
2022/05/10 03:51:26;;;;;;;;;;;;;;;;;;1045694;28;1958;-50
2022/05/10 03:51:57;;;;;;;;;;;;;;;;;;1048517;28;4511;-47
2022/05/10 03:52:27;;;;;;;;;;;;;;;;;;1044317;28;2924;-50
2022/05/10 03:52:57;;;;;;;;;;;;;;;;;;1042679;28;4515;-48
2022/05/10 03:53:28;;;;;;;;;;;;;;;;;;1044695;28;3039;-48
2022/05/10 03:53:58;;;;;;;;;;;;;;;;;;1038679;28;3869;-47
2022/05/10 03:54:28;;;;;;;;;;;;;;;;;;1044871;28;2983;-45
2022/05/10 03:54:58;;;;;;;;;;;;;;;;;;1043487;28;5291;-45
2022/05/10 03:55:29;;;;;;;;;;;;;;;;;;1045048;28;2725;-49
2022/05/10 03:55:59;;;;;;;;;;;;;;;;;;1042895;28;4472;-52
2022/05/10 03:56:29;;;;;;;;;;;;;;;;;;1045630;28;2945;-47
2022/05/10 03:57:00;;;;;;;;;;;;;;;;;;1041202;28;3991;-49
2022/05/10 03:57:30;;;;;;;;;;;;;;;;;;1043216;28;1978;-47
2022/05/10 03:58:02;;;;;;;;;;;;;;;;;;1041857;28;4240;-48